Time,TemperatureF,DewpointF,PressureIn,WindDirection,WindDirectionDegrees,WindSpeedMPH,WindSpeedGustMPH,Humidity,HourlyPrecipIn,Conditions,Clouds,dailyrainin,SoftwareType,DateUTC
2013-01-08 00:23:00,20.3,19.0,28.53,ENE,60,0.0,0.0,93,0.00,,,0.00,weatherlink.com 1.10,2013-01-08 05:23:00,
2013-01-08 00:38:00,19.7,18.0,28.53,ENE,58,0.0,1.0,93,0.00,,,0.00,weatherlink.com 1.10,2013-01-08 05:38:00,
2013-01-08 00:53:00,20.5,19.0,28.53,ENE,58,0.0,1.0,95,0.00,,,0.00,weatherlink.com 1.10,2013-01-08 05:53:00,
2013-01-08 01:08:00,20.1,19.0,28.53,ENE,60,0.0,0.0,94,0.00,,,0.00,weatherlink.com 1.10,2013-01-08 06:08:00,
2013-01-08 01:24:00,19.9,19.0,28.52,ENE,61,0.0,1.0,94,0.00,,,0.00,weatherlink.com 1.10,2013-01-08 06:24:00,
2013-01-08 01:39:00,20.0,19.0,28.52,ESE,117,0.0,0.0,95,0.00,,,0.00,weatherlink.com 1.10,2013-01-08 06:39:00,
2013-01-08 01:54:00,20.0,19.0,28.52,ESE,117,0.0,0.0,94,0.00,,,0.00,weatherlink.com 1.10,2013-01-08 06:54:00,
2013-01-08 02:09:00,20.9,20.0,28.52,NE,51,0.0,0.0,95,0.00,,,0.00,weatherlink.com 1.10,2013-01-08 07:09:00,
2013-01-08 02:24:00,19.7,18.0,28.52,NE,51,0.0,0.0,93,0.00,,,0.00,weatherlink.com 1.10,2013-01-08 07:24:00,
2013-01-08 02:39:00,18.6,17.0,28.52,NE,51,0.0,0.0,93,0.00,,,0.00,weatherlink.com 1.10,2013-01-08 07:39:00,
2013-01-08 02:54:00,19.2,18.0,28.52,NE,53,0.0,0.0,95,0.00,,,0.00,weatherlink.com 1.10,2013-01-08 07:54:00,
2013-01-08 03:09:00,19.0,18.0,28.52,NE,54,0.0,0.0,94,0.00,,,0.00,weatherlink.com 1.10,2013-01-08 08:09:00,
2013-01-08 03:24:00,19.2,18.0,28.53,NE,54,0.0,0.0,95,0.00,,,0.00,weatherlink.com 1.10,2013-01-08 08:24:00,
2013-01-08 03:39:00,19.2,18.0,28.52,NE,54,0.0,0.0,95,0.00,,,0.00,weatherlink.com 1.10,2013-01-08 08:39:00,
2013-01-08 03:54:00,19.1,18.0,28.52,NE,54,0.0,0.0,94,0.00,,,0.00,weatherlink.com 1.10,2013-01-08 08:54:00,
2013-01-08 04:09:00,18.9,18.0,28.51,NE,51,0.0,0.0,94,0.00,,,0.00,weatherlink.com 1.10,2013-01-08 09:09:00,
2013-01-08 04:24:00,19.4,18.0,28.51,SSW,210,0.0,1.0,95,0.00,,,0.00,weatherlink.com 1.10,2013-01-08 09:24:00,
2013-01-08 04:39:00,19.8,19.0,28.51,SSW,210,0.0,1.0,95,0.00,,,0.00,weatherlink.com 1.10,2013-01-08 09:39:00,
2013-01-08 04:54:00,21.0,20.0,28.50,NNE,30,0.0,1.0,96,0.00,,,0.00,weatherlink.com 1.10,2013-01-08 09:54:00,
2013-01-08 05:09:00,21.6,20.0,28.50,NE,51,0.0,1.0,95,0.00,,,0.00,weatherlink.com 1.10,2013-01-08 10:09:00,
2013-01-08 05:24:00,20.7,19.0,28.51,SSE,150,0.0,1.0,94,0.00,,,0.00,weatherlink.com 1.10,2013-01-08 10:24:00,
2013-01-08 05:39:00,20.2,19.0,28.52,East,82,0.0,0.0,94,0.00,,,0.00,weatherlink.com 1.10,2013-01-08 10:39:00,
2013-01-08 05:54:00,20.4,19.0,28.53,East,84,0.0,0.0,94,0.00,,,0.00,weatherlink.com 1.10,2013-01-08 10:54:00,
2013-01-08 06:09:00,20.0,19.0,28.53,East,84,0.0,0.0,94,0.00,,,0.00,weatherlink.com 1.10,2013-01-08 11:09:00,
2013-01-08 06:24:00,18.9,17.0,28.54,NNE,12,0.0,1.0,93,0.00,,,0.00,weatherlink.com 1.10,2013-01-08 11:24:00,
2013-01-08 06:39:00,19.0,18.0,28.54,NE,51,0.0,0.0,94,0.00,,,0.00,weatherlink.com 1.10,2013-01-08 11:39:00,
2013-01-08 06:54:00,19.5,18.0,28.55,NE,52,0.0,1.0,95,0.00,,,0.00,weatherlink.com 1.10,2013-01-08 11:54:00,
2013-01-08 07:09:00,19.4,18.0,28.55,NE,51,0.0,0.0,95,0.00,,,0.00,weatherlink.com 1.10,2013-01-08 12:09:00,
2013-01-08 07:24:00,19.3,18.0,28.54,NE,51,0.0,0.0,95,0.00,,,0.00,weatherlink.com 1.10,2013-01-08 12:24:00,
2013-01-08 07:39:00,20.3,19.0,28.55,NE,51,0.0,1.0,96,0.00,,,0.00,weatherlink.com 1.10,2013-01-08 12:39:00,
2013-01-08 07:54:00,21.6,21.0,28.55,SSW,200,0.0,3.0,96,0.00,,,0.00,weatherlink.com 1.10,2013-01-08 12:54:00,
2013-01-08 08:09:00,21.7,20.0,28.55,NE,46,0.0,2.0,94,0.00,,,0.00,weatherlink.com 1.10,2013-01-08 13:09:00,
2013-01-08 08:24:00,21.9,21.0,28.56,NE,45,0.0,1.0,94,0.00,,,0.00,weatherlink.com 1.10,2013-01-08 13:24:00,
2013-01-08 08:39:00,22.8,22.0,28.56,NE,45,0.0,0.0,95,0.00,,,0.00,weatherlink.com 1.10,2013-01-08 13:39:00,
2013-01-08 08:55:00,24.1,23.0,28.56,NE,47,0.0,1.0,95,0.00,,,0.00,weatherlink.com 1.10,2013-01-08 13:55:00,
2013-01-08 09:09:00,24.7,24.0,28.57,NE,47,0.0,1.0,95,0.00,,,0.00,weatherlink.com 1.10,2013-01-08 14:09:00,
2013-01-08 09:24:00,26.9,26.0,28.58,ENE,77,0.0,0.0,96,0.00,,,0.00,weatherlink.com 1.10,2013-01-08 14:24:00,
2013-01-08 09:39:00,28.7,28.0,28.58,NE,54,1.0,2.0,95,0.00,,,0.00,weatherlink.com 1.10,2013-01-08 14:39:00,
2013-01-08 09:54:00,32.4,30.0,28.58,NE,43,3.0,3.0,89,0.00,,,0.00,weatherlink.com 1.10,2013-01-08 14:54:00,
2013-01-08 10:09:00,35.7,31.0,28.57,NE,53,0.0,2.0,83,0.00,,,0.00,weatherlink.com 1.10,2013-01-08 15:09:00,
2013-01-08 10:24:00,37.4,31.0,28.57,NE,48,0.0,2.0,79,0.00,,,0.00,weatherlink.com 1.10,2013-01-08 15:24:00,
2013-01-08 10:39:00,39.6,32.0,28.57,NE,49,0.0,0.0,74,0.00,,,0.00,weatherlink.com 1.10,2013-01-08 15:39:00,
2013-01-08 10:54:00,42.3,32.0,28.57,ESE,102,0.0,1.0,67,0.00,,,0.00,weatherlink.com 1.10,2013-01-08 15:54:00,
2013-01-08 11:10:00,44.3,31.0,28.57,East,97,0.0,1.0,60,0.00,,,0.00,weatherlink.com 1.10,2013-01-08 16:10:00,
2013-01-08 11:25:00,46.4,31.0,28.55,SSW,195,1.0,3.0,56,0.00,,,0.00,weatherlink.com 1.10,2013-01-08 16:25:00,
2013-01-08 11:40:00,49.2,31.0,28.55,SW,218,5.0,6.0,50,0.00,,,0.00,weatherlink.com 1.10,2013-01-08 16:40:00,
2013-01-08 11:55:00,49.8,30.0,28.54,SSW,197,5.0,6.0,46,0.00,,,0.00,weatherlink.com 1.10,2013-01-08 16:55:00,
2013-01-08 12:10:00,49.6,29.0,28.54,SSW,207,5.0,9.0,45,0.00,,,0.00,weatherlink.com 1.10,2013-01-08 17:10:00,
2013-01-08 12:25:00,50.0,29.0,28.53,SSW,194,3.0,8.0,44,0.00,,,0.00,weatherlink.com 1.10,2013-01-08 17:25:00,
2013-01-08 12:40:00,51.5,30.0,28.52,SSW,201,5.0,7.0,44,0.00,,,0.00,weatherlink.com 1.10,2013-01-08 17:40:00,
2013-01-08 12:55:00,52.4,29.0,28.52,WSW,243,6.0,8.0,40,0.00,,,0.00,weatherlink.com 1.10,2013-01-08 17:55:00,
2013-01-08 13:10:00,52.5,27.0,28.52,SSW,198,2.0,7.0,38,0.00,,,0.00,weatherlink.com 1.10,2013-01-08 18:10:00,
2013-01-08 13:25:00,53.1,29.0,28.51,SSW,207,4.0,7.0,39,0.00,,,0.00,weatherlink.com 1.10,2013-01-08 18:25:00,
2013-01-08 13:40:00,52.3,28.0,28.50,SSW,201,1.0,5.0,39,0.00,,,0.00,weatherlink.com 1.10,2013-01-08 18:40:00,
2013-01-08 13:55:00,52.4,28.0,28.50,SSW,200,2.0,5.0,39,0.00,,,0.00,weatherlink.com 1.10,2013-01-08 18:55:00,
2013-01-08 14:10:00,52.6,27.0,28.50,SSW,204,3.0,4.0,38,0.00,,,0.00,weatherlink.com 1.10,2013-01-08 19:10:00,
2013-01-08 14:25:00,54.1,27.0,28.51,SW,221,5.0,6.0,36,0.00,,,0.00,weatherlink.com 1.10,2013-01-08 19:25:00,
2013-01-08 14:40:00,53.9,27.0,28.51,SSW,194,1.0,3.0,36,0.00,,,0.00,weatherlink.com 1.10,2013-01-08 19:40:00,
2013-01-08 14:55:00,54.1,27.0,28.50,WSW,239,3.0,4.0,35,0.00,,,0.00,weatherlink.com 1.10,2013-01-08 19:55:00,
2013-01-08 15:10:00,54.3,27.0,28.50,SSW,195,2.0,4.0,35,0.00,,,0.00,weatherlink.com 1.10,2013-01-08 20:10:00,
2013-01-08 15:25:00,53.8,26.0,28.50,SSW,197,1.0,3.0,34,0.00,,,0.00,weatherlink.com 1.10,2013-01-08 20:25:00,
2013-01-08 15:40:00,52.6,27.0,28.51,South,190,0.0,2.0,37,0.00,,,0.00,weatherlink.com 1.10,2013-01-08 20:40:00,
2013-01-08 15:55:00,51.1,29.0,28.50,ESE,121,0.0,0.0,42,0.00,,,0.00,weatherlink.com 1.10,2013-01-08 20:55:00,
2013-01-08 16:10:00,48.9,28.0,28.52,ESE,122,0.0,0.0,44,0.00,,,0.00,weatherlink.com 1.10,2013-01-08 21:10:00,
2013-01-08 16:25:00,46.0,29.0,28.52,ENE,58,0.0,1.0,51,0.00,,,0.00,weatherlink.com 1.10,2013-01-08 21:25:00,
2013-01-08 16:55:00,41.3,29.0,28.52,East,90,0.0,1.0,63,0.00,,,0.00,weatherlink.com 1.10,2013-01-08 21:55:00,
2013-01-08 17:10:00,39.2,29.0,28.54,East,86,0.0,1.0,68,0.00,,,0.00,weatherlink.com 1.10,2013-01-08 22:10:00,
2013-01-08 17:25:00,37.7,29.0,28.53,East,86,0.0,1.0,71,0.00,,,0.00,weatherlink.com 1.10,2013-01-08 22:25:00,
2013-01-08 17:40:00,36.5,29.0,28.55,East,84,0.0,0.0,74,0.00,,,0.00,weatherlink.com 1.10,2013-01-08 22:40:00,
2013-01-08 17:55:00,35.2,29.0,28.54,East,84,0.0,1.0,77,0.00,,,0.00,weatherlink.com 1.10,2013-01-08 22:55:00,
2013-01-08 18:10:00,33.9,28.0,28.55,East,84,0.0,1.0,79,0.00,,,0.00,weatherlink.com 1.10,2013-01-08 23:10:00,
2013-01-08 18:25:00,31.8,26.0,28.55,East,84,0.0,0.0,80,0.00,,,0.00,weatherlink.com 1.10,2013-01-08 23:25:00,
2013-01-08 18:40:00,30.4,26.0,28.55,East,84,0.0,0.0,83,0.00,,,0.00,weatherlink.com 1.10,2013-01-08 23:40:00,
2013-01-08 18:55:00,28.9,25.0,28.56,East,85,0.0,0.0,86,0.00,,,0.00,weatherlink.com 1.10,2013-01-08 23:55:00,
2013-01-08 19:10:00,28.1,25.0,28.56,East,84,0.0,0.0,88,0.00,,,0.00,weatherlink.com 1.10,2013-01-09 00:10:00,
2013-01-08 19:25:00,29.1,26.0,28.55,ENE,73,0.0,1.0,89,0.00,,,0.00,weatherlink.com 1.10,2013-01-09 00:25:00,
2013-01-08 19:40:00,28.9,26.0,28.55,ENE,74,0.0,0.0,88,0.00,,,0.00,weatherlink.com 1.10,2013-01-09 00:40:00,
2013-01-08 19:55:00,26.9,24.0,28.56,ENE,73,0.0,0.0,88,0.00,,,0.00,weatherlink.com 1.10,2013-01-09 00:55:00,
2013-01-08 20:10:00,25.5,23.0,28.57,ENE,73,0.0,0.0,89,0.00,,,0.00,weatherlink.com 1.10,2013-01-09 01:10:00,
2013-01-08 20:25:00,26.5,25.0,28.57,ENE,74,0.0,0.0,93,0.00,,,0.00,weatherlink.com 1.10,2013-01-09 01:25:00,
2013-01-08 20:40:00,26.0,24.0,28.57,ENE,65,1.0,1.0,92,0.00,,,0.00,weatherlink.com 1.10,2013-01-09 01:40:00,
2013-01-08 20:55:00,25.5,24.0,28.58,ENE,65,0.0,0.0,92,0.00,,,0.00,weatherlink.com 1.10,2013-01-09 01:55:00,
2013-01-08 21:10:00,24.9,22.0,28.58,SSE,156,0.0,0.0,90,0.00,,,0.00,weatherlink.com 1.10,2013-01-09 02:10:00,
2013-01-08 21:26:00,24.1,22.0,28.58,East,86,0.0,0.0,92,0.00,,,0.00,weatherlink.com 1.10,2013-01-09 02:26:00,
2013-01-08 21:41:00,23.9,22.0,28.57,East,86,0.0,0.0,93,0.00,,,0.00,weatherlink.com 1.10,2013-01-09 02:41:00,
2013-01-08 21:56:00,22.7,21.0,28.57,East,86,0.0,0.0,92,0.00,,,0.00,weatherlink.com 1.10,2013-01-09 02:56:00,
2013-01-08 22:26:00,22.1,20.0,28.57,East,88,0.0,0.0,93,0.00,,,0.00,weatherlink.com 1.10,2013-01-09 03:26:00,
2013-01-08 22:41:00,22.6,21.0,28.56,East,87,0.0,0.0,95,0.00,,,0.00,weatherlink.com 1.10,2013-01-09 03:41:00,
2013-01-08 22:56:00,22.5,21.0,28.56,East,86,0.0,0.0,95,0.00,,,0.00,weatherlink.com 1.10,2013-01-09 03:56:00,
2013-01-08 23:11:00,23.2,22.0,28.56,East,86,0.0,0.0,95,0.00,,,0.00,weatherlink.com 1.10,2013-01-09 04:11:00,
2013-01-08 23:26:00,22.7,22.0,28.57,East,86,0.0,0.0,95,0.00,,,0.00,weatherlink.com 1.10,2013-01-09 04:26:00,
2013-01-08 23:41:00,22.9,22.0,28.57,East,86,0.0,0.0,95,0.00,,,0.00,weatherlink.com 1.10,2013-01-09 04:41:00,
2013-01-08 23:56:00,22.5,21.0,28.57,East,86,0.0,0.0,94,0.00,,,0.00,weatherlink.com 1.10,2013-01-09 04:56:00,